createdAt,value
2022-12-12T00:02:29.719Z,14.75
2022-12-12T00:05:04.833Z,12.75
2022-12-12T00:07:37.805Z,11.07
2022-12-12T00:10:12.833Z,14.57
2022-12-12T00:12:47.067Z,13.85
2022-12-12T00:15:20.822Z,17.98
2022-12-12T00:17:53.982Z,13.80
2022-12-12T00:20:29.024Z,13.80
2022-12-12T00:23:01.905Z,14.27
2022-12-12T00:25:36.137Z,14.23
2022-12-12T00:28:09.054Z,12.55
2022-12-12T00:30:42.128Z,15.27
2022-12-12T00:33:14.981Z,14.00
2022-12-12T00:35:54.492Z,13.13
2022-12-12T00:38:28.767Z,14.75
2022-12-12T00:41:02.783Z,13.07
2022-12-12T00:43:36.026Z,14.30
2022-12-12T00:46:09.721Z,14.52
2022-12-12T00:48:43.194Z,16.13
2022-12-12T00:51:20.009Z,15.15
2022-12-12T00:53:55.975Z,17.35
2022-12-12T00:56:30.826Z,22.73
2022-12-12T00:59:04.460Z,20.50
2022-12-12T01:01:37.384Z,18.83
2022-12-12T01:04:10.559Z,21.73
2022-12-12T01:06:44.908Z,21.05
2022-12-12T01:09:18.148Z,20.83
2022-12-12T01:11:51.271Z,22.02
2022-12-12T01:14:24.236Z,18.50
2022-12-12T01:16:57.747Z,22.58
2022-12-12T01:19:30.708Z,16.67
2022-12-12T01:22:04.999Z,26.27
2022-12-12T01:24:38.065Z,18.15
2022-12-12T01:27:11.679Z,20.92
2022-12-12T01:29:44.548Z,21.90
2022-12-12T01:32:17.498Z,16.33
2022-12-12T01:34:50.817Z,13.93
2022-12-12T01:37:25.305Z,15.90
2022-12-12T01:39:58.404Z,16.08
2022-12-12T01:42:31.309Z,19.60
2022-12-12T01:45:05.225Z,13.95
2022-12-12T01:47:38.524Z,14.10
2022-12-12T01:50:12.286Z,13.77
2022-12-12T01:52:51.358Z,14.93
2022-12-12T01:55:25.078Z,15.75
2022-12-12T01:57:58.287Z,14.45
2022-12-12T02:00:31.302Z,14.98
2022-12-12T02:03:04.439Z,16.77
2022-12-12T02:05:41.601Z,14.38
2022-12-12T02:08:21.574Z,14.43
2022-12-12T02:10:54.561Z,15.85
2022-12-12T02:13:31.736Z,14.45
2022-12-12T02:16:14.224Z,17.17
2022-12-12T02:18:57.930Z,16.35
2022-12-12T02:21:36.055Z,17.33
2022-12-12T02:24:44.874Z,16.77
2022-12-12T02:27:42.140Z,15.45
2022-12-12T02:30:22.268Z,14.95
2022-12-12T02:33:19.678Z,16.45
2022-12-12T02:36:09.251Z,16.58
2022-12-12T02:38:51.653Z,17.13
2022-12-12T02:41:31.905Z,15.57
2022-12-12T02:44:14.351Z,15.68
2022-12-12T02:46:52.615Z,16.42
2022-12-12T02:49:30.278Z,15.98
2022-12-12T02:52:03.744Z,18.95
2022-12-12T02:54:37.713Z,19.27
2022-12-12T02:57:16.722Z,16.73
2022-12-12T02:59:54.607Z,18.98
2022-12-12T03:03:28.662Z,18.58
2022-12-12T03:06:40.672Z,19.35
2022-12-12T03:12:02.820Z,16.20
2022-12-12T03:14:49.985Z,18.52
2022-12-12T03:17:31.640Z,20.00
2022-12-12T03:20:12.181Z,15.02
2022-12-12T03:22:52.934Z,19.88
2022-12-12T03:25:34.615Z,19.48
2022-12-12T03:30:47.870Z,14.48
2022-12-12T03:33:27.466Z,14.45
2022-12-12T03:36:05.009Z,17.30
2022-12-12T03:38:42.647Z,15.45
2022-12-12T03:41:21.611Z,16.00
2022-12-12T03:43:59.295Z,16.98
2022-12-12T03:46:38.340Z,15.23
2022-12-12T03:49:17.101Z,13.23
2022-12-12T03:51:57.038Z,14.80
2022-12-12T03:54:38.155Z,13.68
2022-12-12T03:57:17.106Z,13.90
2022-12-12T03:59:56.162Z,12.48
2022-12-12T04:02:34.717Z,13.48
2022-12-12T04:05:16.252Z,13.35
2022-12-12T04:07:54.103Z,13.80
2022-12-12T04:10:51.208Z,13.45
2022-12-12T04:13:32.826Z,12.55
2022-12-12T04:16:10.288Z,11.30
2022-12-12T04:18:51.577Z,13.20
2022-12-12T04:21:52.233Z,13.93
2022-12-12T04:24:31.755Z,14.40
2022-12-12T04:27:10.451Z,12.23
2022-12-12T04:29:49.499Z,15.80
2022-12-12T04:32:28.259Z,13.23
2022-12-12T04:35:07.376Z,13.27
2022-12-12T04:37:44.467Z,13.32
2022-12-12T04:40:23.153Z,16.95
2022-12-12T04:43:02.768Z,13.10
2022-12-12T04:45:39.984Z,15.23
2022-12-12T04:48:17.676Z,13.40
2022-12-12T04:50:53.958Z,12.05
2022-12-12T04:53:31.147Z,14.02
2022-12-12T04:56:09.547Z,13.20
2022-12-12T04:58:44.062Z,13.10
2022-12-12T05:01:23.800Z,12.43
2022-12-12T05:03:59.195Z,13.77
2022-12-12T05:06:38.817Z,13.60
2022-12-12T05:09:13.835Z,14.55
2022-12-12T05:11:49.032Z,13.93
2022-12-12T05:14:23.672Z,14.93
2022-12-12T05:17:02.329Z,12.57
2022-12-12T05:19:35.306Z,12.18
2022-12-12T05:22:08.180Z,11.38
2022-12-12T05:24:41.584Z,12.32
2022-12-12T05:27:14.483Z,14.05
2022-12-12T05:29:48.904Z,15.00
2022-12-12T05:32:21.965Z,11.20
2022-12-12T05:34:55.108Z,10.95
2022-12-12T05:37:28.144Z,11.77
2022-12-12T05:40:01.036Z,12.45
2022-12-12T05:42:34.043Z,11.93
2022-12-12T05:45:10.493Z,11.35
2022-12-12T05:47:43.520Z,11.68
2022-12-12T05:50:17.486Z,13.23
2022-12-12T05:52:50.726Z,13.75
2022-12-12T05:55:23.934Z,16.08
2022-12-12T05:57:57.005Z,14.73
2022-12-12T06:00:31.322Z,14.13
2022-12-12T06:03:04.362Z,14.30
2022-12-12T06:05:37.421Z,14.27
2022-12-12T06:08:10.561Z,12.77
2022-12-12T06:10:45.643Z,13.27
2022-12-12T06:13:18.791Z,12.90
2022-12-12T06:15:53.403Z,13.68
2022-12-12T06:18:26.878Z,12.00
2022-12-12T06:21:04.069Z,11.98
2022-12-12T06:23:39.553Z,15.23
2022-12-12T06:26:17.044Z,13.55
2022-12-12T06:28:50.692Z,13.90
2022-12-12T06:31:24.993Z,14.82
2022-12-12T06:33:57.955Z,15.38
2022-12-12T06:36:30.987Z,15.07
2022-12-12T06:39:04.808Z,14.02
2022-12-12T06:41:37.972Z,14.95
2022-12-12T06:44:10.943Z,13.70
2022-12-12T06:46:45.592Z,15.07
2022-12-12T06:49:18.504Z,14.32
2022-12-12T06:51:51.698Z,12.90
2022-12-12T06:54:26.234Z,12.95
2022-12-12T06:56:59.331Z,13.23
2022-12-12T06:59:32.142Z,11.05
2022-12-12T07:02:07.204Z,14.95
2022-12-12T07:04:40.575Z,13.07
2022-12-12T07:07:13.674Z,13.68
2022-12-12T07:09:46.989Z,13.60
2022-12-12T07:12:19.945Z,12.98
2022-12-12T07:14:53.519Z,12.82
2022-12-12T07:17:28.885Z,13.52
2022-12-12T07:20:01.913Z,12.10
2022-12-12T07:22:34.744Z,13.35
2022-12-12T07:25:08.616Z,12.35
2022-12-12T07:27:41.648Z,11.70
2022-12-12T07:30:14.770Z,10.63
2022-12-12T07:32:49.499Z,12.20
2022-12-12T07:35:23.409Z,14.23
2022-12-12T07:37:56.711Z,12.57
2022-12-12T07:40:29.721Z,13.15
2022-12-12T07:43:02.758Z,13.40
2022-12-12T07:45:35.644Z,14.10
2022-12-12T07:48:09.879Z,11.32
2022-12-12T07:50:43.530Z,11.63
2022-12-12T07:53:16.281Z,11.52
2022-12-12T07:55:49.139Z,11.65
2022-12-12T07:58:22.451Z,11.50
2022-12-12T08:00:55.409Z,12.05
2022-12-12T08:03:29.640Z,12.13
2022-12-12T08:06:05.660Z,11.77
2022-12-12T08:08:38.580Z,10.63
2022-12-12T08:11:14.541Z,10.85
2022-12-12T08:13:48.009Z,11.50
2022-12-12T08:16:23.737Z,13.93
2022-12-12T08:19:00.216Z,10.68
2022-12-12T08:21:33.142Z,10.30
2022-12-12T08:24:06.308Z,11.95
2022-12-12T08:26:39.495Z,13.38
2022-12-12T08:29:13.068Z,12.13
2022-12-12T08:31:46.314Z,15.40
2022-12-12T08:34:20.630Z,10.27
2022-12-12T08:36:55.070Z,12.52
2022-12-12T08:39:28.243Z,12.13
2022-12-12T08:42:01.563Z,13.13
2022-12-12T08:44:34.479Z,12.13
2022-12-12T08:47:07.637Z,10.77
2022-12-12T08:49:42.067Z,12.93
2022-12-12T08:52:15.229Z,12.02
2022-12-12T08:54:48.347Z,13.43
2022-12-12T08:57:25.946Z,13.82
2022-12-12T08:59:59.166Z,13.35
2022-12-12T09:02:32.381Z,13.98
2022-12-12T09:05:08.015Z,13.55
2022-12-12T09:07:40.868Z,12.27
2022-12-12T09:10:14.012Z,12.55
2022-12-12T09:12:46.919Z,16.23
2022-12-12T09:15:20.208Z,14.32
2022-12-12T09:17:53.575Z,12.75
2022-12-12T09:20:27.952Z,13.65
2022-12-12T09:23:01.194Z,14.07
2022-12-12T09:25:36.843Z,13.60
2022-12-12T09:28:13.685Z,12.95
2022-12-12T09:30:48.099Z,12.27
2022-12-12T09:33:21.306Z,15.48
2022-12-12T09:36:00.574Z,13.35
2022-12-12T09:38:34.089Z,13.57
2022-12-12T09:41:14.984Z,12.93
2022-12-12T09:43:55.782Z,13.83
2022-12-12T09:46:34.729Z,15.38
2022-12-12T09:49:23.495Z,13.82
2022-12-12T09:52:00.269Z,14.15
2022-12-12T09:54:33.092Z,16.33
2022-12-12T09:57:24.796Z,15.52
2022-12-12T10:00:05.398Z,13.23
2022-12-12T10:03:01.910Z,14.63
2022-12-12T10:05:43.255Z,14.98
2022-12-12T10:08:23.064Z,14.80
2022-12-12T10:11:04.718Z,15.73
2022-12-12T10:13:38.510Z,13.73
2022-12-12T10:16:15.961Z,13.73
2022-12-12T10:18:52.130Z,14.13
2022-12-12T10:21:30.199Z,14.50
2022-12-12T10:24:15.974Z,13.07
2022-12-12T10:26:49.265Z,13.73
2022-12-12T10:29:24.044Z,12.77
2022-12-12T10:32:08.677Z,13.93
2022-12-12T10:34:56.000Z,13.57
2022-12-12T10:37:39.916Z,14.48
2022-12-12T10:40:32.607Z,15.57
2022-12-12T10:43:12.888Z,11.15
2022-12-12T10:46:00.761Z,13.48
2022-12-12T10:48:33.681Z,13.90
2022-12-12T10:51:12.015Z,13.20
2022-12-12T10:53:45.889Z,15.00
2022-12-12T10:56:24.759Z,15.20
2022-12-12T10:58:59.641Z,13.30
2022-12-12T11:02:08.249Z,11.63
2022-12-12T11:04:32.563Z,14.93
2022-12-12T11:07:05.420Z,14.38
2022-12-12T11:09:46.092Z,12.88
2022-12-12T11:12:20.997Z,13.85
2022-12-12T11:15:02.229Z,15.52
2022-12-12T11:17:37.093Z,12.68
2022-12-12T11:20:18.564Z,12.60
2022-12-12T11:22:54.223Z,13.27
2022-12-12T11:25:29.738Z,12.80
2022-12-12T11:28:06.940Z,12.88
2022-12-12T11:30:44.798Z,13.35
2022-12-12T11:33:22.329Z,12.85
2022-12-12T11:35:56.457Z,12.85
2022-12-12T11:38:32.588Z,12.68
2022-12-12T11:41:08.241Z,13.27
2022-12-12T11:43:56.235Z,14.98
2022-12-12T11:46:30.900Z,13.80
2022-12-12T11:49:05.645Z,13.48
2022-12-12T11:51:40.480Z,11.88
2022-12-12T11:54:16.077Z,13.25
2022-12-12T11:56:54.135Z,13.68
2022-12-12T11:59:55.901Z,13.23
2022-12-12T12:02:51.603Z,13.27
2022-12-12T12:05:32.080Z,12.63
2022-12-12T12:08:16.991Z,13.77
2022-12-12T12:11:01.523Z,13.05
2022-12-12T12:13:53.565Z,14.23
2022-12-12T12:19:14.320Z,11.25
2022-12-12T12:21:58.406Z,15.10
2022-12-12T12:25:01.248Z,13.70
2022-12-12T12:27:42.837Z,15.23
2022-12-12T12:30:23.304Z,14.10
2022-12-12T12:33:19.787Z,15.13
2022-12-12T12:36:20.739Z,16.42
2022-12-12T12:39:01.839Z,17.75
2022-12-12T12:41:52.146Z,16.75
2022-12-12T12:44:38.100Z,16.98
2022-12-12T12:47:23.039Z,17.35
2022-12-12T12:50:03.324Z,17.42
2022-12-12T12:52:39.916Z,18.27
2022-12-12T12:55:16.422Z,17.02
2022-12-12T12:57:51.459Z,16.08
2022-12-12T13:00:28.404Z,16.13
2022-12-12T13:03:06.868Z,16.58
2022-12-12T13:05:46.424Z,15.98
2022-12-12T13:08:31.694Z,17.73
2022-12-12T13:11:10.552Z,15.07
2022-12-12T13:13:46.075Z,18.88
2022-12-12T13:16:22.286Z,17.48
2022-12-12T13:19:03.567Z,18.25
2022-12-12T13:21:46.964Z,15.95
2022-12-12T13:24:27.244Z,19.45
2022-12-12T13:27:07.534Z,16.92
2022-12-12T13:29:48.781Z,18.05
2022-12-12T13:32:54.912Z,16.88
2022-12-12T13:35:32.435Z,17.13
2022-12-12T13:38:06.967Z,18.17
2022-12-12T13:40:43.360Z,17.75
2022-12-12T13:43:30.460Z,18.30
2022-12-12T13:46:36.563Z,16.00
2022-12-12T13:49:24.704Z,17.40
2022-12-12T13:52:23.075Z,17.88
2022-12-12T13:55:22.993Z,17.55
2022-12-12T13:58:08.453Z,18.42
2022-12-12T14:00:43.381Z,17.60
2022-12-12T14:03:32.335Z,16.98
2022-12-12T14:06:11.761Z,17.75
2022-12-12T14:08:50.793Z,17.42
2022-12-12T14:11:35.400Z,16.33
2022-12-12T14:14:22.500Z,16.70
2022-12-12T14:16:57.999Z,16.85
2022-12-12T14:19:36.466Z,16.13
2022-12-12T14:22:27.950Z,16.20
2022-12-12T14:25:18.655Z,17.85
2022-12-12T14:28:19.156Z,16.95
2022-12-12T14:31:14.357Z,15.63
2022-12-12T14:34:09.297Z,16.38
2022-12-12T14:37:17.983Z,15.57
2022-12-12T14:40:05.322Z,15.13
2022-12-12T14:43:15.269Z,16.40
2022-12-12T14:45:41.167Z,16.40
2022-12-12T14:48:21.092Z,16.10
2022-12-12T14:51:13.438Z,16.50
2022-12-12T14:53:49.606Z,15.18
2022-12-12T14:56:28.087Z,18.17
2022-12-12T14:59:04.012Z,15.50
2022-12-12T15:01:43.757Z,17.90
2022-12-12T15:04:20.747Z,15.38
2022-12-12T15:06:54.554Z,17.00
2022-12-12T15:09:30.672Z,13.80
2022-12-12T15:12:16.307Z,15.30
2022-12-12T15:15:00.337Z,15.45
2022-12-12T15:17:41.233Z,13.63
2022-12-12T15:20:18.746Z,13.40
2022-12-12T15:22:57.204Z,15.13
2022-12-12T15:25:33.127Z,16.60
2022-12-12T15:28:07.262Z,13.93
2022-12-12T15:30:43.487Z,13.73
2022-12-12T15:33:20.206Z,15.02
2022-12-12T15:36:01.119Z,13.75
2022-12-12T15:41:13.519Z,11.77
2022-12-12T15:43:47.042Z,13.40
2022-12-12T15:46:20.122Z,18.90
2022-12-12T15:48:54.675Z,16.08
2022-12-12T15:51:32.252Z,21.38
2022-12-12T15:54:05.689Z,21.10
2022-12-12T15:56:38.731Z,21.67
2022-12-12T15:59:17.833Z,19.30
2022-12-12T16:01:53.542Z,15.90
2022-12-12T16:04:28.300Z,18.73
2022-12-12T16:07:21.148Z,17.25
2022-12-12T16:10:07.600Z,22.52
2022-12-12T16:12:57.647Z,20.23
2022-12-12T16:15:34.271Z,19.83
2022-12-12T16:18:16.504Z,17.65
2022-12-12T16:20:53.601Z,16.25
2022-12-12T16:23:30.761Z,17.65
2022-12-12T16:26:03.699Z,16.35
2022-12-12T16:28:37.323Z,16.08
2022-12-12T16:31:16.866Z,18.20
2022-12-12T16:33:50.377Z,15.95
2022-12-12T16:36:25.084Z,14.65
2022-12-12T16:38:58.425Z,14.13
2022-12-12T16:41:31.948Z,16.00
2022-12-12T16:44:05.340Z,15.88
2022-12-12T16:46:38.267Z,16.33
2022-12-12T16:49:15.268Z,17.05
2022-12-12T16:51:52.623Z,14.35
2022-12-12T16:54:26.018Z,14.35
2022-12-12T16:57:00.263Z,14.57
2022-12-12T16:59:33.253Z,15.90
2022-12-12T17:02:11.801Z,14.35
2022-12-12T17:04:44.900Z,12.90
2022-12-12T17:07:19.896Z,14.70
2022-12-12T17:09:52.979Z,14.63
2022-12-12T17:12:26.183Z,15.70
2022-12-12T17:14:59.278Z,16.58
2022-12-12T17:17:32.506Z,15.25
2022-12-12T17:20:06.592Z,19.65
2022-12-12T17:22:44.464Z,18.00
2022-12-12T17:25:18.058Z,17.35
2022-12-12T17:27:52.143Z,17.63
2022-12-12T17:30:28.185Z,14.35
2022-12-12T17:33:17.556Z,13.07
2022-12-12T17:36:03.289Z,14.85
2022-12-12T17:38:37.969Z,14.02
2022-12-12T17:41:12.928Z,17.13
2022-12-12T17:43:50.581Z,17.25
2022-12-12T17:46:28.768Z,14.85
2022-12-12T17:49:03.402Z,17.10
2022-12-12T17:51:37.617Z,15.30
2022-12-12T17:54:12.536Z,15.95
2022-12-12T17:56:46.029Z,18.17
2022-12-12T17:59:20.328Z,18.65
2022-12-12T18:01:54.225Z,16.40
2022-12-12T18:04:28.645Z,19.60
2022-12-12T18:07:04.116Z,17.67
2022-12-12T18:09:41.110Z,18.35
2022-12-12T18:12:13.995Z,17.88
2022-12-12T18:14:47.639Z,15.05
2022-12-12T18:17:21.202Z,17.92
2022-12-12T18:19:54.851Z,14.02
2022-12-12T18:22:30.625Z,15.77
2022-12-12T18:25:05.865Z,16.15
2022-12-12T18:27:40.392Z,20.10
2022-12-12T18:30:14.171Z,26.33
2022-12-12T18:32:47.361Z,27.40
2022-12-12T18:35:21.253Z,22.75
2022-12-12T18:37:54.496Z,21.27
2022-12-12T18:40:31.274Z,17.65
2022-12-12T18:43:04.524Z,14.82
2022-12-12T18:45:38.611Z,21.88
2022-12-12T18:48:13.054Z,18.40
2022-12-12T18:50:46.215Z,18.27
2022-12-12T18:53:19.241Z,16.63
2022-12-12T18:55:55.471Z,19.33
2022-12-12T18:58:29.079Z,20.15
2022-12-12T19:01:08.044Z,18.15
2022-12-12T19:03:42.791Z,15.88
2022-12-12T19:06:17.974Z,15.13
2022-12-12T19:08:51.766Z,17.15
2022-12-12T19:11:26.272Z,21.52
2022-12-12T19:13:59.411Z,20.48
2022-12-12T19:16:32.420Z,22.13
2022-12-12T19:19:09.446Z,18.58
2022-12-12T19:21:44.984Z,17.05
2022-12-12T19:24:19.860Z,20.60
2022-12-12T19:26:54.671Z,19.60
2022-12-12T19:29:27.810Z,19.55
2022-12-12T19:32:02.347Z,18.63
2022-12-12T19:34:35.402Z,18.83
2022-12-12T19:37:08.841Z,17.95
2022-12-12T19:39:46.270Z,18.25
2022-12-12T19:42:20.621Z,17.48
2022-12-12T19:44:53.645Z,16.85
2022-12-12T19:47:27.612Z,18.40
2022-12-12T19:50:02.069Z,15.82
2022-12-12T19:52:37.995Z,18.00
2022-12-12T19:55:11.784Z,18.25
2022-12-12T19:57:46.778Z,17.33
2022-12-12T20:00:21.153Z,18.42
2022-12-12T20:02:54.336Z,16.40
2022-12-12T20:05:27.583Z,17.75
2022-12-12T20:08:00.780Z,20.77
2022-12-12T20:10:36.448Z,21.00
2022-12-12T20:13:11.626Z,18.75
2022-12-12T20:15:44.823Z,19.52
2022-12-12T20:18:18.041Z,15.95
2022-12-12T20:20:57.429Z,19.60
2022-12-12T20:23:31.891Z,19.02
2022-12-12T20:26:06.490Z,20.40
2022-12-12T20:28:40.916Z,21.77
2022-12-12T20:31:16.470Z,18.67
2022-12-12T20:33:49.834Z,18.95
2022-12-12T20:36:26.368Z,20.45
2022-12-12T20:39:01.876Z,17.95
2022-12-12T20:41:37.792Z,20.65
2022-12-12T20:44:13.988Z,22.15
2022-12-12T20:46:47.915Z,22.83
2022-12-12T20:49:24.620Z,18.58
2022-12-12T20:51:58.803Z,22.35
2022-12-12T20:54:32.330Z,17.45
2022-12-12T20:57:05.373Z,20.20
2022-12-12T20:59:39.694Z,19.55
2022-12-12T21:02:24.002Z,19.10
2022-12-12T21:05:00.718Z,20.70
2022-12-12T21:07:33.763Z,19.73
2022-12-12T21:10:07.438Z,16.60
2022-12-12T21:12:40.471Z,18.58
2022-12-12T21:15:15.188Z,18.25
2022-12-12T21:17:48.291Z,20.17
2022-12-12T21:20:24.281Z,19.35
2022-12-12T21:22:57.675Z,19.88
2022-12-12T21:25:30.664Z,18.52
2022-12-12T21:28:03.659Z,19.55
2022-12-12T21:30:38.083Z,22.27
2022-12-12T21:33:11.654Z,23.90
2022-12-12T21:35:44.829Z,18.20
2022-12-12T21:38:18.389Z,19.02
2022-12-12T21:40:51.256Z,19.50
2022-12-12T21:43:24.949Z,18.50
2022-12-12T21:45:59.965Z,20.52
2022-12-12T21:48:33.038Z,20.90
2022-12-12T21:51:11.554Z,27.10
2022-12-12T21:53:50.175Z,24.90
2022-12-12T21:56:25.542Z,23.40
2022-12-12T21:59:01.782Z,23.63
2022-12-12T22:01:36.319Z,24.35
2022-12-12T22:04:10.833Z,22.85
2022-12-12T22:06:45.774Z,22.58
2022-12-12T22:09:18.731Z,21.35
2022-12-12T22:11:52.065Z,20.25
2022-12-12T22:14:25.715Z,20.95
2022-12-12T22:17:00.074Z,21.10
2022-12-12T22:19:33.346Z,20.48
2022-12-12T22:22:07.507Z,17.83
2022-12-12T22:24:46.360Z,22.77
2022-12-12T22:27:19.337Z,18.70
2022-12-12T22:29:52.295Z,20.80
2022-12-12T22:32:26.681Z,18.67
2022-12-12T22:34:59.541Z,22.52
2022-12-12T22:37:35.133Z,21.42
2022-12-12T22:40:09.722Z,21.60
2022-12-12T22:42:42.664Z,25.20
2022-12-12T22:45:16.168Z,23.95
2022-12-12T22:47:53.132Z,19.25
2022-12-12T22:50:26.115Z,18.17
2022-12-12T22:52:59.178Z,25.50
2022-12-12T22:55:35.372Z,21.83
2022-12-12T22:58:08.772Z,21.58
2022-12-12T23:00:41.871Z,23.52
2022-12-12T23:03:16.319Z,22.83
2022-12-12T23:05:49.792Z,20.85
2022-12-12T23:08:22.811Z,24.95
2022-12-12T23:10:55.753Z,21.55
2022-12-12T23:13:29.016Z,20.27
2022-12-12T23:16:06.429Z,21.92
2022-12-12T23:18:42.135Z,18.67
2022-12-12T23:21:17.608Z,23.05
2022-12-12T23:23:50.752Z,22.98
2022-12-12T23:26:26.873Z,19.85
2022-12-12T23:29:00.643Z,24.58
2022-12-12T23:31:36.337Z,22.80
2022-12-12T23:34:16.020Z,23.55
2022-12-12T23:36:49.360Z,24.70
2022-12-12T23:39:23.373Z,24.25
2022-12-12T23:41:56.617Z,25.65
2022-12-12T23:44:30.115Z,23.02
2022-12-12T23:47:03.003Z,24.80
2022-12-12T23:49:37.525Z,24.80
2022-12-12T23:52:10.706Z,22.50
2022-12-12T23:54:44.327Z,22.67
2022-12-12T23:57:17.430Z,25.67
2022-12-12T23:59:50.459Z,22.77
